Time;durP1;ratioP1;P1;durP2;ratioP2;P2;SDS_P1;SDS_P2;PMS_P1;PMS_P2;Temp;Humidity;BMP_temperature;BMP_pressure;BME280_temperature;BME280_humidity;BME280_pressure;Samples;Min_cycle;Max_cycle;Signal;HPM_P1;HPM_P2
2023/11/06 00:00:18;;;;;;;;;;;;;;;9.99;77.20;98391.69;1088981;54;937;-82
2023/11/06 00:01:23;;;;;;;;;;;;;;;9.90;76.97;98387.44;1088979;54;954;-83
2023/11/06 00:02:28;;;;;;;;;;;;;;;9.94;77.17;98388.72;1088968;54;871;-84
2023/11/06 00:03:31;;;;;;;;;;;;;;;9.96;77.46;98394.69;1088651;54;974;-83
2023/11/06 00:04:35;;;;;;;;;;;;;;;9.98;77.53;98398.84;1088659;46;884;-83
2023/11/06 00:05:36;;;;;;;;;;;;;;;10.04;77.53;98385.78;1088644;47;894;-82
2023/11/06 00:06:41;;;;;;;;;;;;;;;9.98;77.55;98393.50;1088619;47;889;-83
2023/11/06 00:07:42;;;;;;;;;;;;;;;10.02;77.45;98391.28;1088709;54;990;-83
2023/11/06 00:08:49;;;;;;;;;;;;;;;10.06;77.18;98387.25;1088653;54;1294;-84
2023/11/06 00:09:50;;;;;;;;;;;;;;;10.11;76.99;98390.19;1088748;54;934;-83
2023/11/06 00:10:54;;;;;;;;;;;;;;;10.12;76.84;98386.53;1088514;47;1860;-82
2023/11/06 00:11:55;;;;;;;;;;;;;;;10.16;76.70;98389.66;1088219;47;1106;-82
2023/11/06 00:12:59;;;;;;;;;;;;;;;10.19;76.49;98391.16;1088305;54;987;-81
2023/11/06 00:14:00;;;;;;;;;;;;;;;10.20;76.21;98387.47;1088053;54;1067;-81
2023/11/06 00:15:04;;;;;;;;;;;;;;;10.21;76.05;98384.63;1088248;47;1154;-82
2023/11/06 00:16:06;;;;;;;;;;;;;;;10.22;76.08;98385.44;1088328;54;1124;-81
2023/11/06 00:17:12;;;;;;;;;;;;;;;10.24;76.18;98394.09;1088515;47;988;-83
2023/11/06 00:18:12;;;;;;;;;;;;;;;10.23;75.98;98389.75;1088528;47;1416;-82
2023/11/06 00:19:16;;;;;;;;;;;;;;;10.24;75.95;98386.09;1088794;54;883;-83
2023/11/06 00:20:18;;;;;;;;;;;;;;;10.23;75.60;98393.28;1088753;54;917;-82
2023/11/06 00:21:23;;;;;;;;;;;;;;;10.23;75.53;98390.59;1088799;54;945;-82
2023/11/06 00:22:24;;;;;;;;;;;;;;;10.24;75.61;98386.09;1088367;47;916;-82
2023/11/06 00:23:28;;;;;;;;;;;;;;;10.25;75.85;98393.09;1088595;54;964;-83
2023/11/06 00:24:32;;;;;;;;;;;;;;;10.25;75.58;98391.22;1088705;54;1010;-83
2023/11/06 00:25:36;;;;;;;;;;;;;;;10.27;75.48;98393.75;1088671;54;994;-82
2023/11/06 00:27:00;;;;;;;;;;;;;;;10.24;75.40;98394.94;1088757;54;925;-83
2023/11/06 00:28:11;;;;;;;;;;;;;;;10.24;75.26;98394.09;1088792;54;977;-84
2023/11/06 00:29:12;;;;;;;;;;;;;;;10.19;74.83;98394.63;1088763;54;975;-83
2023/11/06 00:30:15;;;;;;;;;;;;;;;10.22;75.34;98396.13;1088709;54;1020;-82
2023/11/06 00:32:47;;;;;;;;;;;;;;;10.13;75.41;98398.06;1088663;54;971;-84
2023/11/06 00:33:48;;;;;;;;;;;;;;;10.14;74.98;98400.53;1088563;54;885;-83
2023/11/06 00:46:29;;;;;;;;;;;;;;;10.08;75.04;98406.59;1087972;54;1172;-83
2023/11/06 00:47:30;;;;;;;;;;;;;;;10.12;75.24;98410.56;1088424;54;973;-83
2023/11/06 00:48:36;;;;;;;;;;;;;;;10.10;75.17;98409.94;1088366;47;1165;-82
2023/11/06 00:49:38;;;;;;;;;;;;;;;10.08;75.34;98414.63;1088475;47;942;-79
2023/11/06 00:50:41;;;;;;;;;;;;;;;10.09;75.25;98416.28;1088416;54;1872;-80
2023/11/06 00:51:44;;;;;;;;;;;;;;;10.13;75.44;98411.41;1088565;47;967;-82
2023/11/06 00:52:48;;;;;;;;;;;;;;;10.11;75.35;98422.25;1088443;47;1017;-83
2023/11/06 00:53:50;;;;;;;;;;;;;;;10.13;75.37;98422.91;1088451;54;974;-80
2023/11/06 00:54:58;;;;;;;;;;;;;;;10.09;75.08;98418.94;1088398;47;934;-81
2023/11/06 00:56:01;;;;;;;;;;;;;;;10.13;75.42;98411.41;1088499;47;938;-81
2023/11/06 00:57:03;;;;;;;;;;;;;;;10.10;75.25;98419.75;1088445;47;920;-81
2023/11/06 00:58:06;;;;;;;;;;;;;;;10.15;75.24;98412.06;1088534;47;910;-82
2023/11/06 00:59:08;;;;;;;;;;;;;;;10.15;74.81;98412.88;1088533;47;1269;-82
2023/11/06 01:00:16;;;;;;;;;;;;;;;10.13;75.38;98420.22;1088418;54;917;-82
2023/11/06 01:01:17;;;;;;;;;;;;;;;10.07;75.00;98426.31;1088432;54;976;-80
2023/11/06 01:02:20;;;;;;;;;;;;;;;10.10;74.80;98420.63;1088487;54;1016;-81
2023/11/06 01:03:21;;;;;;;;;;;;;;;10.14;74.64;98421.88;1088516;54;1014;-81
2023/11/06 01:04:27;;;;;;;;;;;;;;;10.14;74.79;98421.06;1088452;47;995;-81
2023/11/06 01:05:29;;;;;;;;;;;;;;;10.15;74.26;98423.56;1088476;54;901;-80
2023/11/06 01:06:33;;;;;;;;;;;;;;;10.13;74.40;98417.56;1088356;47;945;-81
2023/11/06 01:07:34;;;;;;;;;;;;;;;10.20;74.15;98423.00;1088525;54;876;-84
2023/11/06 01:08:37;;;;;;;;;;;;;;;10.22;73.53;98422.81;1088454;54;1248;-80
2023/11/06 01:09:44;;;;;;;;;;;;;;;10.24;73.66;98420.81;1088517;47;951;-81
2023/11/06 01:10:48;;;;;;;;;;;;;;;10.27;73.49;98431.13;1088466;54;1848;-81
2023/11/06 01:11:48;;;;;;;;;;;;;;;10.26;73.07;98426.78;1088398;47;986;-82
2023/11/06 01:12:52;;;;;;;;;;;;;;;10.24;72.71;98428.81;1088416;54;928;-82
2023/11/06 01:13:53;;;;;;;;;;;;;;;10.26;73.00;98440.16;1088443;54;970;-82
2023/11/06 01:14:57;;;;;;;;;;;;;;;10.28;72.75;98427.44;1088435;54;995;-80
2023/11/06 01:16:05;;;;;;;;;;;;;;;10.33;72.78;98426.91;1088341;47;939;-83
2023/11/06 01:17:12;;;;;;;;;;;;;;;10.36;72.11;98426.50;1088406;54;992;-81
2023/11/06 01:18:15;;;;;;;;;;;;;;;10.34;72.03;98429.38;1088332;47;1370;-80
2023/11/06 01:19:20;;;;;;;;;;;;;;;10.34;72.18;98420.56;1088350;47;902;-80
2023/11/06 01:20:24;;;;;;;;;;;;;;;10.40;72.35;98417.16;1088422;54;1021;-79
2023/11/06 01:21:28;;;;;;;;;;;;;;;10.39;71.97;98432.34;1088440;47;962;-81
2023/11/06 01:22:28;;;;;;;;;;;;;;;10.42;71.78;98429.31;1088563;47;919;-80
2023/11/06 01:23:32;;;;;;;;;;;;;;;10.48;71.94;98432.28;1088218;47;896;-80
2023/11/06 01:24:32;;;;;;;;;;;;;;;10.46;71.74;98429.78;1088185;47;982;-80
2023/11/06 01:25:36;;;;;;;;;;;;;;;10.43;71.79;98430.97;1088210;47;943;-79
2023/11/06 01:26:38;;;;;;;;;;;;;;;10.48;71.72;98438.44;1088238;54;1107;-80
2023/11/06 01:27:42;;;;;;;;;;;;;;;10.50;71.52;98433.75;1088230;54;1158;-79
2023/11/06 01:28:42;;;;;;;;;;;;;;;10.49;71.40;98425.91;1088185;54;1252;-80
2023/11/06 01:29:43;;;;;;;;;;;;;;;10.50;71.20;98427.56;1088180;47;967;-79
2023/11/06 01:30:47;;;;;;;;;;;;;;;10.51;71.45;98426.56;1088122;54;1924;-80
2023/11/06 01:31:48;;;;;;;;;;;;;;;10.53;71.48;98429.88;1088179;47;928;-80
2023/11/06 01:32:51;;;;;;;;;;;;;;;10.50;71.31;98428.41;1088412;47;1010;-82
2023/11/06 01:33:52;;;;;;;;;;;;;;;10.55;71.25;98433.19;1088445;54;1041;-82
2023/11/06 01:34:58;;;;;;;;;;;;;;;10.56;70.84;98438.34;1088291;47;946;-82
2023/11/06 01:36:02;;;;;;;;;;;;;;;10.55;70.94;98444.72;1088479;54;958;-82
2023/11/06 01:37:08;;;;;;;;;;;;;;;10.54;70.79;98437.69;1088555;54;935;-84
2023/11/06 01:38:09;;;;;;;;;;;;;;;10.55;70.74;98441.22;1088400;54;1311;-82
2023/11/06 01:39:14;;;;;;;;;;;;;;;10.55;70.63;98443.88;1088381;54;939;-84
2023/11/06 01:40:16;;;;;;;;;;;;;;;10.59;70.86;98439.81;1088481;47;1028;-81
2023/11/06 01:41:20;;;;;;;;;;;;;;;10.55;70.95;98444.72;1088549;54;979;-81
2023/11/06 01:42:20;;;;;;;;;;;;;;;10.60;70.63;98441.47;1088454;54;925;-82
2023/11/06 01:43:24;;;;;;;;;;;;;;;10.61;70.54;98441.31;1088466;54;1000;-82
2023/11/06 01:44:25;;;;;;;;;;;;;;;10.64;70.78;98452.63;1088496;54;938;-83
2023/11/06 01:45:29;;;;;;;;;;;;;;;10.66;70.32;98446.13;1088414;47;909;-82
2023/11/06 01:46:30;;;;;;;;;;;;;;;10.59;70.45;98440.66;1088324;54;1095;-82
2023/11/06 01:47:36;;;;;;;;;;;;;;;10.63;70.02;98445.66;1088303;54;953;-82
2023/11/06 01:48:37;;;;;;;;;;;;;;;10.66;70.48;98439.91;1088109;54;1389;-81
2023/11/06 01:49:41;;;;;;;;;;;;;;;10.59;70.21;98450.50;1088004;47;921;-81
2023/11/06 01:50:42;;;;;;;;;;;;;;;10.59;70.50;98446.00;1088089;54;1055;-80
2023/11/06 01:51:48;;;;;;;;;;;;;;;10.65;70.17;98438.25;1088073;47;1842;-83
2023/11/06 01:52:49;;;;;;;;;;;;;;;10.64;70.09;98442.78;1088298;47;847;-82
2023/11/06 01:53:52;;;;;;;;;;;;;;;10.62;70.45;98444.81;1088298;47;1091;-82
2023/11/06 01:54:54;;;;;;;;;;;;;;;10.69;70.14;98439.56;1088422;54;1144;-82
2023/11/06 01:56:00;;;;;;;;;;;;;;;10.69;70.19;98442.22;1088563;54;961;-81
2023/11/06 01:57:09;;;;;;;;;;;;;;;10.71;70.22;98437.53;1088786;54;993;-81
2023/11/06 01:58:11;;;;;;;;;;;;;;;10.72;70.05;98444.53;1088868;46;1370;-82
2023/11/06 01:59:15;;;;;;;;;;;;;;;10.69;69.99;98443.03;1088707;54;991;-82
2023/11/06 02:00:17;;;;;;;;;;;;;;;10.71;69.88;98443.69;1088745;47;977;-82
2023/11/06 02:01:27;;;;;;;;;;;;;;;10.73;69.61;98440.84;1088794;54;901;-82
2023/11/06 02:02:33;;;;;;;;;;;;;;;10.71;69.81;98442.88;1088590;54;996;-82
2023/11/06 02:03:37;;;;;;;;;;;;;;;10.74;69.78;98454.03;1088538;54;994;-82
2023/11/06 02:04:38;;;;;;;;;;;;;;;10.75;69.77;98449.50;1088842;47;969;-83
2023/11/06 02:05:39;;;;;;;;;;;;;;;10.81;69.65;98443.44;1088654;46;906;-82
2023/11/06 02:06:43;;;;;;;;;;;;;;;10.81;69.69;98450.59;1088584;54;964;-83
2023/11/06 02:07:46;;;;;;;;;;;;;;;10.81;69.72;98448.78;1088714;54;915;-83
2023/11/06 02:08:50;;;;;;;;;;;;;;;10.81;69.24;98450.59;1088514;54;1363;-79
2023/11/06 02:09:52;;;;;;;;;;;;;;;10.73;69.37;98452.38;1088670;54;981;-83
2023/11/06 02:10:57;;;;;;;;;;;;;;;10.73;69.82;98452.38;1088766;54;1849;-81
2023/11/06 02:12:01;;;;;;;;;;;;;;;10.81;69.69;98450.59;1088781;54;945;-81
2023/11/06 02:13:02;;;;;;;;;;;;;;;10.72;69.84;98456.06;1088534;54;910;-80
2023/11/06 02:14:05;;;;;;;;;;;;;;;10.74;69.42;98462.06;1088290;47;936;-79
2023/11/06 02:15:10;;;;;;;;;;;;;;;10.74;69.34;98458.53;1088267;47;988;-79
2023/11/06 02:16:16;;;;;;;;;;;;;;;10.82;69.53;98457.63;1088829;54;919;-82
2023/11/06 02:17:18;;;;;;;;;;;;;;;10.79;69.10;98469.50;1088633;47;933;-81
2023/11/06 02:18:21;;;;;;;;;;;;;;;10.72;69.90;98465.94;1088574;54;1273;-83
2023/11/06 02:19:22;;;;;;;;;;;;;;;10.75;69.32;98461.03;1088584;54;970;-81
2023/11/06 02:20:26;;;;;;;;;;;;;;;10.76;69.44;98462.69;1088518;47;936;-81
2023/11/06 02:21:28;;;;;;;;;;;;;;;10.71;69.49;98475.78;1088480;46;927;-80
2023/11/06 02:22:30;;;;;;;;;;;;;;;10.70;69.61;98471.44;1088696;54;976;-83
2023/11/06 02:23:37;;;;;;;;;;;;;;;10.67;69.62;98471.81;1088616;47;1004;-84
2023/11/06 02:24:38;;;;;;;;;;;;;;;10.73;69.66;98471.09;1088569;47;960;-83
2023/11/06 02:25:41;;;;;;;;;;;;;;;10.72;70.11;98469.41;1088669;54;1012;-82
2023/11/06 02:26:52;;;;;;;;;;;;;;;10.65;70.28;98471.16;1088773;54;959;-82
2023/11/06 02:27:55;;;;;;;;;;;;;;;10.57;70.48;98476.59;1088568;54;978;-81
2023/11/06 02:28:56;;;;;;;;;;;;;;;10.61;70.13;98472.53;1088127;47;1350;-81
2023/11/06 02:29:59;;;;;;;;;;;;;;;10.54;70.31;98480.44;1087927;47;1093;-80
2023/11/06 02:31:01;;;;;;;;;;;;;;;10.50;70.49;98481.84;1088174;54;1852;-81
2023/11/06 02:32:04;;;;;;;;;;;;;;;10.56;70.71;98472.28;1088297;47;1058;-80
2023/11/06 02:33:05;;;;;;;;;;;;;;;10.57;70.55;98472.09;1088197;47;1094;-80
2023/11/06 02:34:08;;;;;;;;;;;;;;;10.54;70.66;98476.97;1088419;54;919;-81
2023/11/06 02:35:09;;;;;;;;;;;;;;;10.54;70.59;98475.09;1088032;47;1173;-81
2023/11/06 02:36:12;;;;;;;;;;;;;;;10.53;70.73;98477.97;1088304;54;1092;-80
2023/11/06 02:37:13;;;;;;;;;;;;;;;10.46;71.04;98483.22;1088549;47;938;-82
2023/11/06 02:38:16;;;;;;;;;;;;;;;10.53;70.81;98483.31;1088583;47;1258;-83
2023/11/06 02:39:23;;;;;;;;;;;;;;;10.54;70.81;98480.44;1088634;46;931;-83
2023/11/06 02:40:27;;;;;;;;;;;;;;;10.53;70.88;98483.31;1088709;47;947;-82
2023/11/06 02:41:29;;;;;;;;;;;;;;;10.55;70.83;98497.34;1088764;54;958;-82
2023/11/06 02:42:29;;;;;;;;;;;;;;;10.53;71.13;98489.47;1088625;47;820;-81
2023/11/06 02:43:36;;;;;;;;;;;;;;;10.55;70.79;98487.47;1088620;46;946;-82
2023/11/06 02:44:36;;;;;;;;;;;;;;;10.51;70.74;98488.84;1088484;54;917;-81
2023/11/06 02:45:40;;;;;;;;;;;;;;;10.50;71.13;98486.34;1088668;54;920;-82
2023/11/06 02:46:41;;;;;;;;;;;;;;;10.53;70.69;98494.00;1088611;54;1057;-83
2023/11/06 02:47:44;;;;;;;;;;;;;;;10.51;71.10;98499.53;1088530;47;1129;-81
2023/11/06 02:48:45;;;;;;;;;;;;;;;10.42;71.03;98508.66;1088506;54;1258;-82
2023/11/06 02:49:49;;;;;;;;;;;;;;;10.42;70.81;98504.13;1088600;54;1006;-83
2023/11/06 02:50:50;;;;;;;;;;;;;;;10.40;70.81;98502.66;1088658;47;947;-81
2023/11/06 02:51:52;;;;;;;;;;;;;;;10.40;70.87;98503.47;1088236;54;1856;-81
2023/11/06 02:52:55;;;;;;;;;;;;;;;10.38;71.19;98507.34;1088215;47;979;-81
2023/11/06 02:53:56;;;;;;;;;;;;;;;10.32;71.04;98508.84;1088156;54;1109;-81
2023/11/06 02:55:02;;;;;;;;;;;;;;;10.33;70.99;98509.69;1088264;47;1150;-80
2023/11/06 02:56:04;;;;;;;;;;;;;;;10.38;70.86;98518.88;1088685;54;1150;-80
2023/11/06 02:57:07;;;;;;;;;;;;;;;10.39;70.71;98512.50;1088611;54;991;-82
2023/11/06 02:58:08;;;;;;;;;;;;;;;10.41;70.90;98512.31;1088386;54;1109;-81
2023/11/06 02:59:11;;;;;;;;;;;;;;;10.38;70.74;98513.53;1088342;47;949;-81
2023/11/06 03:00:14;;;;;;;;;;;;;;;10.36;70.90;98515.50;1088255;47;901;-81
2023/11/06 03:01:19;;;;;;;;;;;;;;;10.43;70.48;98519.13;1088466;47;852;-82
2023/11/06 03:02:20;;;;;;;;;;;;;;;10.41;70.71;98518.50;1088417;54;1062;-82
2023/11/06 03:03:23;;;;;;;;;;;;;;;10.43;70.36;98521.81;1088399;54;1119;-81
2023/11/06 03:04:24;;;;;;;;;;;;;;;10.47;70.45;98524.94;1088350;47;1034;-81
2023/11/06 03:05:27;;;;;;;;;;;;;;;10.51;70.08;98528.09;1088408;54;987;-81
2023/11/06 03:06:28;;;;;;;;;;;;;;;10.49;70.17;98528.28;1088472;54;1066;-81
2023/11/06 03:07:30;;;;;;;;;;;;;;;10.51;70.20;98530.75;1088567;54;1085;-82
2023/11/06 03:08:34;;;;;;;;;;;;;;;10.54;69.75;98527.72;1088673;47;1326;-82
2023/11/06 03:09:35;;;;;;;;;;;;;;;10.58;70.26;98539.72;1088563;47;1019;-82
2023/11/06 03:10:41;;;;;;;;;;;;;;;10.57;70.07;98538.06;1088549;54;910;-81
2023/11/06 03:11:42;;;;;;;;;;;;;;;10.52;69.90;98535.09;1088523;54;1856;-82
2023/11/06 03:12:45;;;;;;;;;;;;;;;10.51;70.07;98538.78;1088359;47;926;-81
2023/11/06 03:13:46;;;;;;;;;;;;;;;10.55;70.06;98537.41;1088510;54;971;-82
2023/11/06 03:14:46;;;;;;;;;;;;;;;10.53;69.65;98542.09;1088374;47;978;-82
2023/11/06 03:15:50;;;;;;;;;;;;;;;10.53;69.89;98544.78;1088115;54;1118;-80
2023/11/06 03:16:51;;;;;;;;;;;;;;;10.55;70.09;98542.75;1087804;47;1109;-79
2023/11/06 03:17:54;;;;;;;;;;;;;;;10.55;69.76;98545.44;1087860;47;1039;-79
2023/11/06 03:18:55;;;;;;;;;;;;;;;10.54;69.94;98547.25;1087603;46;1329;-79
2023/11/06 03:19:59;;;;;;;;;;;;;;;10.53;69.73;98547.44;1087910;47;1066;-80
2023/11/06 03:21:00;;;;;;;;;;;;;;;10.61;69.94;98547.38;1087506;47;1675;-80
2023/11/06 03:22:04;;;;;;;;;;;;;;;10.61;69.87;98545.53;1087442;54;1062;-79
2023/11/06 03:23:04;;;;;;;;;;;;;;;10.58;70.03;98550.41;1087464;54;1158;-79
2023/11/06 03:24:07;;;;;;;;;;;;;;;10.55;69.83;98556.94;1086956;46;1146;-80
2023/11/06 03:25:11;;;;;;;;;;;;;;;10.51;70.06;98555.66;1086949;54;1011;-79
2023/11/06 03:26:14;;;;;;;;;;;;;;;10.54;70.05;98549.09;1087314;47;1052;-79
2023/11/06 03:27:17;;;;;;;;;;;;;;;10.57;69.79;98554.09;1087391;46;1027;-80
2023/11/06 03:28:18;;;;;;;;;;;;;;;10.55;69.96;98551.59;1087242;47;1402;-78
2023/11/06 03:29:21;;;;;;;;;;;;;;;10.60;70.00;98548.38;1087491;54;1156;-79
2023/11/06 03:30:22;;;;;;;;;;;;;;;10.52;70.34;98556.47;1086373;47;1275;-80
2023/11/06 03:31:26;;;;;;;;;;;;;;;10.56;70.11;98557.78;1087374;46;1904;-79
2023/11/06 03:32:27;;;;;;;;;;;;;;;10.53;70.35;98552.78;1087553;54;1135;-80
2023/11/06 03:33:30;;;;;;;;;;;;;;;10.61;70.01;98550.03;1087976;54;1078;-80
2023/11/06 03:34:30;;;;;;;;;;;;;;;10.61;70.14;98560.72;1087709;47;1491;-79
2023/11/06 03:35:35;;;;;;;;;;;;;;;10.62;70.08;98567.72;1087719;47;1115;-79
2023/11/06 03:36:40;;;;;;;;;;;;;;;10.61;70.00;98566.91;1087630;46;1004;-80
2023/11/06 03:37:43;;;;;;;;;;;;;;;10.56;70.36;98569.28;1087447;54;1367;-79
2023/11/06 03:38:44;;;;;;;;;;;;;;;10.61;70.24;98571.41;1087797;54;1321;-80
2023/11/06 03:39:47;;;;;;;;;;;;;;;10.56;70.04;98571.13;1087726;46;1267;-80
2023/11/06 03:40:48;;;;;;;;;;;;;;;10.62;70.35;98578.41;1088579;54;1030;-81
2023/11/06 03:41:54;;;;;;;;;;;;;;;10.58;70.26;98582.47;1088610;54;1060;-82
2023/11/06 03:42:57;;;;;;;;;;;;;;;10.58;70.04;98579.81;1088680;54;970;-82
2023/11/06 03:44:00;;;;;;;;;;;;;;;10.54;70.41;98586.50;1088795;54;1112;-83
2023/11/06 03:45:01;;;;;;;;;;;;;;;10.57;70.32;98580.81;1088609;47;1008;-84
2023/11/06 03:46:02;;;;;;;;;;;;;;;10.58;70.43;98582.47;1088787;54;959;-83
2023/11/06 03:47:08;;;;;;;;;;;;;;;10.59;70.18;98590.31;1088446;54;1132;-83
2023/11/06 03:48:14;;;;;;;;;;;;;;;10.62;70.33;98591.78;1088792;54;891;-83
2023/11/06 03:49:19;;;;;;;;;;;;;;;10.58;70.35;98594.00;1088811;54;891;-82
2023/11/06 03:50:20;;;;;;;;;;;;;;;10.59;70.42;98594.81;1088665;54;889;-82
2023/11/06 03:51:24;;;;;;;;;;;;;;;10.61;70.10;98600.81;1088550;47;972;-81
2023/11/06 03:52:25;;;;;;;;;;;;;;;10.64;70.11;98597.78;1088541;47;1853;-82
2023/11/06 03:53:28;;;;;;;;;;;;;;;10.61;70.31;98603.47;1088681;46;991;-82
2023/11/06 03:54:29;;;;;;;;;;;;;;;10.56;70.54;98605.88;1088459;54;879;-81
2023/11/06 03:55:33;;;;;;;;;;;;;;;10.61;70.33;98603.47;1088565;54;1004;-82
2023/11/06 03:56:34;;;;;;;;;;;;;;;10.63;70.12;98603.31;1088589;54;1000;-83
2023/11/06 03:57:40;;;;;;;;;;;;;;;10.59;70.57;98610.84;1088527;54;958;-83
2023/11/06 03:58:41;;;;;;;;;;;;;;;10.64;70.19;98619.16;1088336;47;1343;-80
2023/11/06 03:59:44;;;;;;;;;;;;;;;10.57;70.42;98616.38;1088204;47;988;-80
2023/11/06 04:00:46;;;;;;;;;;;;;;;10.60;70.43;98612.50;1088376;47;884;-82
2023/11/06 04:01:50;;;;;;;;;;;;;;;10.47;70.70;98612.31;1088326;54;1078;-81
2023/11/06 04:02:53;;;;;;;;;;;;;;;10.53;70.68;98608.91;1088397;54;963;-82
2023/11/06 04:03:59;;;;;;;;;;;;;;;10.48;70.54;98613.97;1088553;47;1155;-82
2023/11/06 04:05:00;;;;;;;;;;;;;;;10.38;71.02;98615.03;1088424;46;944;-82
2023/11/06 04:06:06;;;;;;;;;;;;;;;10.42;70.67;98610.97;1088342;47;1072;-80
2023/11/06 04:07:06;;;;;;;;;;;;;;;10.36;71.13;98606.34;1088456;54;1059;-80
2023/11/06 04:08:09;;;;;;;;;;;;;;;10.27;71.38;98616.22;1088205;54;1163;-82
2023/11/06 04:09:10;;;;;;;;;;;;;;;10.39;71.15;98616.66;1088233;54;949;-81
2023/11/06 04:10:15;;;;;;;;;;;;;;;10.37;71.26;98621.38;1088228;54;1074;-81
2023/11/06 04:11:16;;;;;;;;;;;;;;;10.34;71.50;98623.56;1088200;54;1027;-81
2023/11/06 04:12:21;;;;;;;;;;;;;;;10.34;71.28;98624.38;1088277;47;2170;-80
2023/11/06 04:13:24;;;;;;;;;;;;;;;10.27;71.74;98618.91;1088181;47;955;-82
2023/11/06 04:14:28;;;;;;;;;;;;;;;10.38;71.33;98624.88;1088141;47;1074;-82
2023/11/06 04:15:28;;;;;;;;;;;;;;;10.33;71.68;98621.88;1088215;54;1170;-81
2023/11/06 04:16:32;;;;;;;;;;;;;;;10.29;71.89;98626.75;1088275;54;995;-81
2023/11/06 04:17:33;;;;;;;;;;;;;;;10.27;72.14;98623.44;1088294;47;1024;-80
2023/11/06 04:18:36;;;;;;;;;;;;;;;10.26;71.86;98621.75;1088106;47;1852;-83
2023/11/06 04:19:37;;;;;;;;;;;;;;;10.27;72.22;98628.78;1088099;54;938;-79
2023/11/06 04:20:41;;;;;;;;;;;;;;;10.27;72.26;98639.44;1087982;47;1069;-81
2023/11/06 04:21:43;;;;;;;;;;;;;;;10.14;72.40;98635.50;1088051;54;1003;-80
2023/11/06 04:22:46;;;;;;;;;;;;;;;10.27;72.31;98634.94;1088121;54;1082;-79
2023/11/06 04:23:47;;;;;;;;;;;;;;;10.22;72.41;98641.81;1088086;54;994;-80
2023/11/06 04:24:50;;;;;;;;;;;;;;;10.27;72.31;98639.44;1088363;54;1101;-82
2023/11/06 04:25:51;;;;;;;;;;;;;;;10.12;72.72;98645.53;1088545;54;906;-82
2023/11/06 04:26:55;;;;;;;;;;;;;;;10.15;72.69;98631.84;1088277;47;1093;-80
2023/11/06 04:27:55;;;;;;;;;;;;;;;10.12;72.72;98637.53;1088338;46;1006;-79
2023/11/06 04:29:02;;;;;;;;;;;;;;;10.18;72.48;98636.00;1088485;47;1240;-83
2023/11/06 04:32:18;;;;;;;;;;;;;;;10.23;72.60;98644.31;1088744;54;1829;-81
2023/11/06 04:33:18;;;;;;;;;;;;;;;10.24;72.68;98643.31;1088345;54;925;-79
2023/11/06 04:37:53;;;;;;;;;;;;;;;10.32;72.08;98661.09;1088049;54;1203;-79
2023/11/06 04:38:54;;;;;;;;;;;;;;;10.37;71.90;98655.22;1088382;54;1192;-81
2023/11/06 04:39:55;;;;;;;;;;;;;;;10.32;71.57;98647.75;1088554;47;944;-80
2023/11/06 04:40:59;;;;;;;;;;;;;;;10.32;71.83;98647.75;1088495;54;928;-80
2023/11/06 04:42:00;;;;;;;;;;;;;;;10.25;71.84;98657.50;1088581;54;962;-80
2023/11/06 04:43:01;;;;;;;;;;;;;;;10.30;71.96;98650.63;1088498;54;1032;-81
2023/11/06 04:44:07;;;;;;;;;;;;;;;10.27;71.61;98655.47;1088496;47;1004;-81
2023/11/06 04:45:08;;;;;;;;;;;;;;;10.22;71.75;98652.50;1088380;47;971;-80
2023/11/06 04:46:12;;;;;;;;;;;;;;;10.27;71.83;98655.47;1088561;54;1001;-82
2023/11/06 04:47:12;;;;;;;;;;;;;;;10.31;71.46;98654.09;1088534;54;978;-81
2023/11/06 04:48:16;;;;;;;;;;;;;;;10.35;71.31;98654.56;1088496;54;1345;-81
2023/11/06 04:49:17;;;;;;;;;;;;;;;10.34;71.69;98661.78;1088118;54;1078;-80
2023/11/06 04:50:21;;;;;;;;;;;;;;;10.29;71.47;98658.81;1087976;47;977;-79
2023/11/06 04:51:21;;;;;;;;;;;;;;;10.30;71.47;98657.78;1087939;47;991;-80
2023/11/06 04:52:25;;;;;;;;;;;;;;;10.27;71.55;98656.28;1088232;54;1846;-79
2023/11/06 04:53:25;;;;;;;;;;;;;;;10.20;71.81;98665.22;1088239;54;1002;-81
2023/11/06 04:54:29;;;;;;;;;;;;;;;10.26;71.77;98662.63;1088211;47;1051;-81
2023/11/06 04:55:29;;;;;;;;;;;;;;;10.30;71.84;98665.78;1087744;54;890;-80
2023/11/06 04:56:33;;;;;;;;;;;;;;;10.25;71.89;98668.16;1087913;54;1063;-80
2023/11/06 04:57:33;;;;;;;;;;;;;;;10.32;71.64;98663.78;1087701;54;975;-80
2023/11/06 04:58:36;;;;;;;;;;;;;;;10.36;71.56;98672.25;1087884;54;1394;-80
2023/11/06 04:59:42;;;;;;;;;;;;;;;10.28;72.09;98668.66;1087879;54;1416;-80
2023/11/06 05:00:46;;;;;;;;;;;;;;;10.34;71.67;98667.13;1087816;47;1028;-80
2023/11/06 05:01:47;;;;;;;;;;;;;;;10.28;71.67;98679.34;1087888;47;953;-79
2023/11/06 05:02:51;;;;;;;;;;;;;;;10.30;71.74;98677.31;1087922;54;987;-79
2023/11/06 05:03:51;;;;;;;;;;;;;;;10.36;71.71;98680.28;1087921;47;1511;-81
2023/11/06 05:04:54;;;;;;;;;;;;;;;10.34;71.69;98685.81;1087724;47;971;-83
2023/11/06 05:05:55;;;;;;;;;;;;;;;10.38;71.40;98683.66;1087846;54;999;-82
2023/11/06 05:06:58;;;;;;;;;;;;;;;10.37;71.61;98687.28;1087826;47;1463;-82
2023/11/06 05:07:59;;;;;;;;;;;;;;;10.32;71.54;98676.31;1087839;47;1118;-82
2023/11/06 05:09:02;;;;;;;;;;;;;;;10.33;71.86;98683.31;1087809;54;1434;-81
2023/11/06 05:10:05;;;;;;;;;;;;;;;10.32;71.47;98682.47;1087758;54;1014;-83
2023/11/06 05:11:08;;;;;;;;;;;;;;;10.28;71.77;98684.69;1087788;47;1000;-82
2023/11/06 05:12:09;;;;;;;;;;;;;;;10.32;71.58;98685.16;1087619;54;1869;-81
2023/11/06 05:13:12;;;;;;;;;;;;;;;10.33;71.36;98684.13;1087623;47;1057;-81
2023/11/06 05:14:13;;;;;;;;;;;;;;;10.38;71.68;98691.66;1087722;54;899;-82
2023/11/06 05:15:19;;;;;;;;;;;;;;;10.40;71.16;98687.78;1087834;54;984;-80
2023/11/06 05:16:19;;;;;;;;;;;;;;;10.34;71.64;98693.00;1087743;47;951;-79
2023/11/06 05:17:23;;;;;;;;;;;;;;;10.38;71.13;98697.84;1087718;47;940;-79
2023/11/06 05:18:23;;;;;;;;;;;;;;;10.42;71.46;98701.81;1087814;54;1414;-81
2023/11/06 05:19:24;;;;;;;;;;;;;;;10.41;71.20;98700.16;1087744;47;1075;-79
2023/11/06 05:20:28;;;;;;;;;;;;;;;10.36;71.17;98701.66;1087657;54;1051;-79
2023/11/06 05:21:28;;;;;;;;;;;;;;;10.33;71.27;98705.50;1087817;54;1085;-82
2023/11/06 05:22:29;;;;;;;;;;;;;;;10.39;71.20;98699.50;1087865;54;961;-79
2023/11/06 05:23:33;;;;;;;;;;;;;;;10.42;71.32;98703.66;1087905;47;996;-79
2023/11/06 05:24:34;;;;;;;;;;;;;;;10.45;71.11;98701.47;1087773;47;887;-80
2023/11/06 05:25:34;;;;;;;;;;;;;;;10.45;71.11;98709.50;1087812;47;1023;-78
2023/11/06 05:26:39;;;;;;;;;;;;;;;10.44;71.28;98699.81;1087887;47;914;-79
2023/11/06 05:27:39;;;;;;;;;;;;;;;10.40;71.19;98703.00;1087776;47;895;-79
2023/11/06 05:28:43;;;;;;;;;;;;;;;10.38;71.00;98710.34;1087723;47;1284;-80
2023/11/06 05:29:43;;;;;;;;;;;;;;;10.41;71.19;98708.16;1087832;47;937;-82
2023/11/06 05:30:50;;;;;;;;;;;;;;;10.40;70.97;98709.16;1087803;47;1013;-80
2023/11/06 05:31:51;;;;;;;;;;;;;;;10.47;71.15;98719.16;1088298;54;1011;-80
2023/11/06 05:32:54;;;;;;;;;;;;;;;10.53;70.78;98713.09;1088229;54;1839;-80
2023/11/06 05:33:55;;;;;;;;;;;;;;;10.57;70.96;98714.44;1088189;54;926;-80
2023/11/06 05:35:00;;;;;;;;;;;;;;;10.59;70.54;98715.91;1088039;54;1193;-79
2023/11/06 05:36:00;;;;;;;;;;;;;;;10.66;70.45;98723.22;1088162;46;1115;-82
2023/11/06 05:37:04;;;;;;;;;;;;;;;10.66;70.83;98721.38;1088035;54;1073;-81
2023/11/06 05:38:05;;;;;;;;;;;;;;;10.70;70.82;98722.66;1087932;54;1149;-81
2023/11/06 05:39:11;;;;;;;;;;;;;;;10.70;70.63;98725.34;1088172;54;1362;-82
2023/11/06 05:40:12;;;;;;;;;;;;;;;10.66;70.44;98721.38;1088250;54;976;-82
2023/11/06 05:41:13;;;;;;;;;;;;;;;10.70;70.32;98724.53;1088181;54;989;-80
2023/11/06 05:42:16;;;;;;;;;;;;;;;10.72;70.24;98728.69;1088173;46;976;-82
2023/11/06 05:43:17;;;;;;;;;;;;;;;10.71;70.04;98727.00;1088275;46;1098;-80
2023/11/06 05:44:20;;;;;;;;;;;;;;;10.72;70.29;98730.53;1088070;47;1048;-80
2023/11/06 05:45:21;;;;;;;;;;;;;;;10.74;70.33;98736.50;1088226;54;1000;-81
2023/11/06 05:46:28;;;;;;;;;;;;;;;10.73;70.27;98737.50;1088182;47;1186;-81
2023/11/06 05:47:28;;;;;;;;;;;;;;;10.75;70.26;98743.53;1088155;54;1341;-80
2023/11/06 05:48:32;;;;;;;;;;;;;;;10.79;70.04;98754.69;1088163;54;1239;-80
2023/11/06 05:49:32;;;;;;;;;;;;;;;10.80;70.36;98743.00;1088106;47;1110;-82
2023/11/06 05:50:37;;;;;;;;;;;;;;;10.71;70.38;98748.41;1088066;47;1160;-81
2023/11/06 05:51:38;;;;;;;;;;;;;;;10.72;70.07;98742.03;1088273;54;979;-82
2023/11/06 05:52:42;;;;;;;;;;;;;;;10.76;70.11;98746.03;1087849;54;1850;-82